Time;durP1;ratioP1;P1;durP2;ratioP2;P2;SDS_P1;SDS_P2;PMS_P1;PMS_P2;Temp;Humidity;BMP_temperature;BMP_pressure;BME280_temperature;BME280_humidity;BME280_pressure;Samples;Min_cycle;Max_cycle;Signal;HPM_P1;HPM_P2
2022/01/17 00:01:15;;;;;;;20.60;12.20;;;2.80;99.90;;;;;;5053020;28;20304;-72
2022/01/17 00:03:42;;;;;;;19.83;12.00;;;2.80;99.90;;;;;;5053375;28;20297;-72
2022/01/17 00:06:10;;;;;;;21.10;12.20;;;2.80;99.90;;;;;;5053036;28;20512;-70
2022/01/17 00:08:41;;;;;;;23.20;13.93;;;2.80;99.90;;;;;;5052273;28;20202;-71
2022/01/17 00:11:08;;;;;;;22.17;13.50;;;2.80;99.90;;;;;;5044677;28;20256;-71
2022/01/17 00:13:38;;;;;;;19.97;12.47;;;2.80;99.90;;;;;;5053651;28;20210;-72
2022/01/17 00:16:09;;;;;;;24.77;14.43;;;2.90;99.90;;;;;;5053899;28;20203;-71
2022/01/17 00:21:21;;;;;;;24.20;13.87;;;2.80;99.90;;;;;;5052437;28;20197;-71
2022/01/17 00:23:50;;;;;;;25.57;14.47;;;2.80;99.90;;;;;;5053282;28;20761;-71
2022/01/17 00:26:17;;;;;;;25.00;13.10;;;2.80;99.90;;;;;;5052580;28;20221;-72
2022/01/17 00:28:45;;;;;;;21.77;13.20;;;2.80;99.90;;;;;;5053428;28;20210;-71
2022/01/17 00:31:12;;;;;;;26.77;15.03;;;2.80;99.90;;;;;;5052806;28;20214;-71
2022/01/17 00:33:40;;;;;;;26.63;14.47;;;2.90;99.90;;;;;;5052969;28;20288;-71
2022/01/17 00:36:07;;;;;;;25.97;15.23;;;2.80;99.90;;;;;;5052306;28;20319;-71
2022/01/17 00:38:34;;;;;;;25.33;15.13;;;2.80;99.90;;;;;;5052676;28;20229;-71
2022/01/17 00:41:01;;;;;;;22.90;13.67;;;2.90;99.90;;;;;;5052353;28;20212;-73
2022/01/17 00:43:28;;;;;;;25.60;14.67;;;2.90;99.90;;;;;;5051895;28;20591;-71
2022/01/17 00:45:57;;;;;;;28.80;15.10;;;2.90;99.90;;;;;;5052687;28;20210;-71
2022/01/17 00:48:24;;;;;;;28.33;14.60;;;2.80;99.90;;;;;;5052111;28;20788;-71
2022/01/17 00:50:51;;;;;;;26.10;15.20;;;2.90;99.90;;;;;;5051876;28;20210;-71
2022/01/17 00:53:17;;;;;;;26.83;14.63;;;2.90;99.90;;;;;;5051270;28;20206;-72
2022/01/17 00:55:44;;;;;;;24.40;13.90;;;2.90;99.90;;;;;;5051167;28;20210;-71
2022/01/17 00:58:11;;;;;;;25.30;13.73;;;2.90;99.90;;;;;;5052631;28;20611;-70
2022/01/17 01:00:40;;;;;;;26.80;15.00;;;2.90;99.90;;;;;;5051261;28;20208;-72
2022/01/17 01:03:09;;;;;;;25.00;15.17;;;3.00;99.90;;;;;;5042496;28;20260;-71
2022/01/17 01:05:36;;;;;;;27.97;15.13;;;3.00;99.90;;;;;;5050750;28;20561;-71
2022/01/17 01:08:03;;;;;;;25.50;13.90;;;3.00;99.90;;;;;;5052606;28;20292;-70
2022/01/17 01:10:30;;;;;;;30.20;15.87;;;3.00;99.90;;;;;;5051911;28;20206;-72
2022/01/17 01:12:57;;;;;;;25.77;14.00;;;3.00;99.90;;;;;;5051431;28;20206;-72
2022/01/17 01:15:45;;;;;;;25.53;14.20;;;3.00;99.90;;;;;;5052440;28;20212;-71
2022/01/17 01:18:16;;;;;;;27.60;15.03;;;3.00;99.90;;;;;;5051390;28;20206;-71
2022/01/17 01:21:09;;;;;;;27.43;14.90;;;3.00;99.90;;;;;;5051635;28;20206;-72
2022/01/17 01:29:04;;;;;;;25.43;13.70;;;3.00;99.90;;;;;;5051333;28;20566;-71
2022/01/17 01:31:42;;;;;;;26.47;13.93;;;3.00;99.90;;;;;;5051267;28;20233;-71
2022/01/17 01:34:11;;;;;;;27.53;15.50;;;3.00;99.90;;;;;;5050784;28;20655;-71
2022/01/17 01:36:38;;;;;;;24.60;14.13;;;3.00;99.90;;;;;;5051414;28;20206;-71
2022/01/17 01:39:07;;;;;;;25.83;14.43;;;3.00;99.90;;;;;;5044671;28;20671;-72
2022/01/17 01:41:42;;;;;;;30.13;16.20;;;3.00;99.90;;;;;;5050616;28;20221;-71
2022/01/17 01:44:13;;;;;;;30.40;15.37;;;3.10;99.90;;;;;;5051274;28;20572;-71
2022/01/17 01:46:41;;;;;;;28.17;15.77;;;3.10;99.90;;;;;;5050923;28;20206;-72
2022/01/17 01:49:08;;;;;;;28.20;15.03;;;3.00;99.90;;;;;;5047115;28;20207;-71
2022/01/17 01:51:36;;;;;;;30.53;15.80;;;3.10;99.90;;;;;;5048605;28;20210;-71
2022/01/17 01:54:04;;;;;;;28.40;15.53;;;3.10;99.90;;;;;;5044756;28;20335;-73
2022/01/17 01:56:31;;;;;;;27.00;15.37;;;3.10;99.90;;;;;;5051081;28;20267;-71
2022/01/17 01:58:58;;;;;;;26.17;15.63;;;3.10;99.90;;;;;;5049386;28;20203;-73
2022/01/17 02:01:25;;;;;;;28.80;16.47;;;3.10;99.90;;;;;;5051893;28;20210;-72
2022/01/17 02:03:52;;;;;;;30.07;17.57;;;3.10;99.90;;;;;;5050604;28;20205;-71
2022/01/17 02:06:19;;;;;;;26.10;14.50;;;3.10;99.90;;;;;;5051431;28;20300;-70
2022/01/17 02:08:47;;;;;;;27.83;15.47;;;3.10;99.90;;;;;;5056296;28;20265;-71
2022/01/17 02:11:14;;;;;;;25.87;15.63;;;3.10;99.90;;;;;;5055753;28;20244;-71
2022/01/17 02:13:41;;;;;;;24.27;14.97;;;3.20;99.90;;;;;;5055798;28;20317;-71
2022/01/17 02:16:13;;;;;;;28.20;15.77;;;3.20;99.90;;;;;;5056016;28;20202;-70
2022/01/17 02:18:42;;;;;;;25.93;15.73;;;3.20;99.90;;;;;;5055538;28;20651;-71
2022/01/17 02:21:17;;;;;;;29.87;17.63;;;3.20;99.90;;;;;;5055048;28;20198;-71
2022/01/17 02:23:45;;;;;;;26.23;14.90;;;3.30;99.90;;;;;;5054339;28;20212;-70
2022/01/17 02:26:13;;;;;;;25.33;16.10;;;3.30;99.90;;;;;;5055103;28;20225;-70
2022/01/17 02:28:46;;;;;;;24.73;14.93;;;3.30;99.90;;;;;;5055018;28;20272;-71
2022/01/17 02:31:13;;;;;;;26.97;15.90;;;3.30;99.90;;;;;;5055567;28;20202;-71
2022/01/17 02:33:40;;;;;;;28.10;15.40;;;3.30;99.90;;;;;;5054146;28;20210;-70
2022/01/17 02:36:07;;;;;;;25.53;15.23;;;3.30;99.90;;;;;;5054532;28;20216;-70
2022/01/17 02:38:35;;;;;;;25.37;15.50;;;3.30;99.90;;;;;;5054419;28;20229;-71
2022/01/17 02:41:02;;;;;;;27.20;15.80;;;3.40;99.90;;;;;;5048971;28;20297;-71
2022/01/17 02:43:31;;;;;;;24.77;16.20;;;3.40;99.90;;;;;;5054442;28;20208;-71
2022/01/17 02:48:40;;;;;;;26.00;15.30;;;3.40;99.90;;;;;;5036221;28;20233;-70
2022/01/17 02:51:07;;;;;;;26.97;16.70;;;3.40;99.90;;;;;;5053704;28;20675;-71
2022/01/17 02:53:35;;;;;;;25.83;16.60;;;3.40;99.90;;;;;;5055079;28;20220;-70
2022/01/17 02:56:04;;;;;;;27.13;15.40;;;3.40;99.90;;;;;;5049313;28;20202;-70
2022/01/17 02:58:33;;;;;;;27.53;15.73;;;3.40;99.90;;;;;;5054251;28;20217;-71
2022/01/17 03:01:02;;;;;;;28.17;16.47;;;3.50;99.90;;;;;;5053956;28;20214;-71
2022/01/17 03:03:30;;;;;;;29.67;16.17;;;3.50;99.90;;;;;;5053861;28;20205;-70
2022/01/17 03:05:58;;;;;;;29.17;15.77;;;3.50;99.90;;;;;;5045304;28;20670;-71
2022/01/17 03:08:27;;;;;;;26.97;15.97;;;3.50;99.90;;;;;;5053605;28;20240;-70
2022/01/17 03:10:56;;;;;;;27.77;16.17;;;3.60;99.90;;;;;;5054127;28;20702;-71
2022/01/17 03:13:26;;;;;;;26.73;15.93;;;3.60;99.90;;;;;;5053980;28;20202;-72
2022/01/17 03:15:56;;;;;;;24.90;15.67;;;3.60;99.90;;;;;;5053552;28;20698;-71
2022/01/17 03:18:24;;;;;;;24.00;15.20;;;3.60;99.90;;;;;;5053668;28;20198;-70
2022/01/17 03:20:51;;;;;;;27.37;14.70;;;3.60;99.90;;;;;;5054565;28;20209;-70
2022/01/17 03:23:18;;;;;;;24.63;14.00;;;3.60;99.90;;;;;;5054170;28;20206;-70
2022/01/17 03:25:45;;;;;;;21.90;13.97;;;3.70;99.90;;;;;;5053997;28;20206;-71
2022/01/17 03:28:13;;;;;;;28.17;15.77;;;3.70;99.90;;;;;;5053779;28;20240;-72
2022/01/17 03:30:40;;;;;;;22.27;14.03;;;3.70;99.90;;;;;;5052575;28;20210;-72
2022/01/17 03:33:09;;;;;;;22.80;13.90;;;3.70;99.90;;;;;;5042325;28;20212;-71
2022/01/17 03:35:38;;;;;;;24.13;14.33;;;3.70;99.90;;;;;;5054237;28;20574;-73
2022/01/17 03:38:06;;;;;;;20.33;13.00;;;3.70;99.90;;;;;;5053775;28;20200;-72
2022/01/17 03:40:33;;;;;;;20.40;12.43;;;3.70;99.90;;;;;;5053281;28;20206;-73
2022/01/17 03:43:00;;;;;;;22.73;13.37;;;3.70;99.90;;;;;;5054357;28;20210;-72
2022/01/17 03:45:28;;;;;;;25.23;14.63;;;3.80;99.90;;;;;;5054163;28;20205;-72
2022/01/17 03:47:55;;;;;;;21.53;14.00;;;3.80;99.90;;;;;;5053507;28;20233;-72
2022/01/17 03:50:24;;;;;;;20.20;12.83;;;3.80;99.90;;;;;;5053844;28;20206;-71
2022/01/17 03:52:51;;;;;;;21.83;13.13;;;3.80;99.90;;;;;;5054128;28;20426;-71
2022/01/17 03:55:20;;;;;;;21.00;12.07;;;3.80;99.90;;;;;;5055163;28;20287;-72
2022/01/17 03:57:48;;;;;;;20.30;13.37;;;3.90;99.90;;;;;;5055185;28;20237;-72
2022/01/17 04:00:18;;;;;;;19.50;12.70;;;3.90;99.90;;;;;;5051722;28;20293;-72
2022/01/17 04:02:46;;;;;;;20.00;11.50;;;3.90;99.90;;;;;;5055036;28;20214;-72
2022/01/17 04:05:14;;;;;;;21.07;14.03;;;3.90;99.90;;;;;;5054773;28;20210;-72
2022/01/17 04:07:41;;;;;;;23.13;13.87;;;3.90;99.90;;;;;;5054386;28;20226;-72
2022/01/17 04:10:08;;;;;;;16.57;11.93;;;3.90;99.90;;;;;;5054231;28;20660;-73
2022/01/17 04:12:35;;;;;;;18.20;12.47;;;3.90;99.90;;;;;;5053421;28;20253;-71
2022/01/17 04:15:02;;;;;;;21.23;12.43;;;4.00;99.90;;;;;;5052864;28;20206;-72
2022/01/17 04:17:29;;;;;;;22.43;12.30;;;4.00;99.90;;;;;;5053595;28;20558;-72
2022/01/17 04:20:04;;;;;;;20.00;12.13;;;4.00;99.90;;;;;;5047422;28;20236;-72
2022/01/17 04:22:34;;;;;;;19.87;11.87;;;4.00;99.90;;;;;;5052554;28;20210;-70
2022/01/17 04:25:01;;;;;;;18.97;11.83;;;4.00;99.90;;;;;;5053014;28;20225;-71
2022/01/17 04:27:28;;;;;;;21.83;12.83;;;4.00;99.90;;;;;;5052565;28;20209;-70
2022/01/17 04:29:55;;;;;;;18.23;11.90;;;4.00;99.90;;;;;;5052271;28;20288;-70
2022/01/17 04:32:21;;;;;;;20.30;11.50;;;4.00;99.90;;;;;;5052739;28;20698;-70
2022/01/17 04:34:48;;;;;;;22.70;12.17;;;4.00;99.90;;;;;;5052364;28;20301;-70
2022/01/17 04:37:17;;;;;;;17.97;11.07;;;4.00;99.90;;;;;;5045349;28;20213;-70
2022/01/17 04:39:44;;;;;;;17.07;11.17;;;4.00;99.90;;;;;;5052160;28;20557;-70
2022/01/17 04:42:12;;;;;;;16.97;10.83;;;4.00;99.90;;;;;;5051610;28;20296;-71
2022/01/17 04:47:24;;;;;;;20.67;10.87;;;4.00;99.90;;;;;;5044611;28;20200;-71
2022/01/17 04:49:51;;;;;;;19.33;11.63;;;4.10;99.90;;;;;;5052426;28;20265;-72
2022/01/17 04:52:19;;;;;;;21.53;11.60;;;4.10;99.90;;;;;;5050905;28;20206;-70
2022/01/17 04:54:52;;;;;;;15.63;10.37;;;4.10;99.90;;;;;;5052292;28;20210;-71
2022/01/17 04:57:21;;;;;;;15.53;9.50;;;4.10;99.90;;;;;;5051214;28;20244;-72
2022/01/17 04:59:48;;;;;;;14.00;9.27;;;4.10;99.90;;;;;;5051219;28;20228;-72
2022/01/17 05:02:16;;;;;;;17.57;10.10;;;4.20;99.90;;;;;;5050669;28;20209;-71
2022/01/17 05:04:45;;;;;;;17.60;10.17;;;4.20;99.90;;;;;;5050179;28;20208;-72
2022/01/17 05:07:12;;;;;;;15.27;10.03;;;4.20;99.90;;;;;;5051440;28;20718;-70
2022/01/17 05:09:41;;;;;;;16.43;9.77;;;4.20;99.90;;;;;;5051769;28;20243;-70
2022/01/17 05:12:09;;;;;;;14.03;8.80;;;4.20;99.90;;;;;;5045889;28;20266;-70
2022/01/17 05:14:39;;;;;;;13.03;8.50;;;4.20;99.90;;;;;;5051468;28;20557;-70
2022/01/17 05:17:22;;;;;;;16.23;8.93;;;4.20;99.90;;;;;;5046158;28;20252;-71
2022/01/17 05:19:51;;;;;;;13.93;8.77;;;4.30;99.90;;;;;;5051268;28;20213;-71
2022/01/17 05:22:19;;;;;;;13.27;7.70;;;4.30;99.90;;;;;;5050890;28;20300;-71
2022/01/17 05:24:48;;;;;;;13.20;7.50;;;4.30;99.90;;;;;;5051478;28;20216;-71
2022/01/17 05:27:15;;;;;;;10.30;7.33;;;4.30;99.90;;;;;;5051502;28;20206;-70
2022/01/17 05:29:42;;;;;;;11.23;7.17;;;4.40;99.90;;;;;;5051108;28;20729;-72
2022/01/17 05:32:09;;;;;;;11.07;6.90;;;4.40;99.90;;;;;;5051214;28;20209;-71
2022/01/17 05:34:40;;;;;;;11.30;8.17;;;4.40;99.90;;;;;;5052070;28;20471;-71
2022/01/17 05:37:07;;;;;;;10.77;6.80;;;4.40;99.90;;;;;;5050910;28;20541;-71
2022/01/17 05:39:34;;;;;;;13.77;8.30;;;4.40;99.90;;;;;;5051354;28;21040;-70
2022/01/17 05:42:03;;;;;;;12.63;6.53;;;4.40;99.90;;;;;;5050481;28;20312;-71
2022/01/17 05:44:30;;;;;;;10.27;7.10;;;4.40;99.90;;;;;;5050946;28;20210;-70
2022/01/17 05:46:57;;;;;;;12.17;6.33;;;4.40;99.90;;;;;;5051069;28;20201;-71
2022/01/17 05:49:24;;;;;;;10.63;7.17;;;4.50;99.90;;;;;;5052208;28;20723;-71
2022/01/17 05:51:51;;;;;;;8.57;6.90;;;4.50;99.90;;;;;;5046564;28;20210;-70
2022/01/17 05:54:18;;;;;;;9.97;7.10;;;4.50;99.90;;;;;;5044429;28;20600;-71
2022/01/17 05:56:45;;;;;;;11.37;6.27;;;4.50;99.90;;;;;;5050818;28;20737;-71
2022/01/17 05:59:14;;;;;;;9.73;6.10;;;4.50;99.90;;;;;;5050672;28;20211;-71
2022/01/17 06:01:42;;;;;;;11.03;6.53;;;4.60;99.90;;;;;;5050333;28;20217;-71
2022/01/17 06:04:09;;;;;;;9.83;6.50;;;4.60;99.90;;;;;;5048715;28;20229;-70
2022/01/17 06:06:36;;;;;;;9.63;7.03;;;4.60;99.90;;;;;;5051309;28;20210;-71
2022/01/17 06:09:03;;;;;;;8.00;5.97;;;4.60;99.90;;;;;;5050711;28;20232;-72
2022/01/17 06:11:30;;;;;;;11.13;5.47;;;4.60;99.90;;;;;;5051426;28;20815;-71
2022/01/17 06:13:59;;;;;;;8.87;6.03;;;4.60;99.90;;;;;;5050806;28;20249;-72
2022/01/17 06:16:27;;;;;;;7.97;5.63;;;4.60;99.90;;;;;;5051077;28;20217;-71
2022/01/17 06:18:54;;;;;;;8.87;5.80;;;4.60;99.90;;;;;;5050186;28;20221;-72
2022/01/17 06:21:21;;;;;;;8.03;5.40;;;4.60;99.90;;;;;;5050686;28;20401;-71
2022/01/17 06:23:48;;;;;;;6.70;4.83;;;4.60;99.90;;;;;;5051072;28;20758;-71
2022/01/17 06:26:15;;;;;;;7.60;5.03;;;4.60;99.90;;;;;;5050393;28;20205;-72
2022/01/17 06:28:42;;;;;;;8.90;4.83;;;4.60;99.90;;;;;;5050316;28;20228;-72
2022/01/17 06:31:08;;;;;;;6.53;4.20;;;4.60;99.90;;;;;;5049632;28;20206;-71
2022/01/17 06:33:37;;;;;;;9.13;4.93;;;4.60;99.90;;;;;;5050551;28;20208;-71
2022/01/17 06:36:04;;;;;;;7.73;4.70;;;4.60;99.90;;;;;;5050229;28;20305;-71
2022/01/17 06:38:31;;;;;;;6.47;4.60;;;4.60;99.90;;;;;;5050438;28;20202;-72
2022/01/17 06:40:58;;;;;;;7.43;5.27;;;4.50;99.90;;;;;;5050887;28;20210;-71
2022/01/17 06:43:24;;;;;;;9.57;5.37;;;4.50;99.90;;;;;;5050570;28;20210;-72
2022/01/17 06:45:51;;;;;;;7.80;5.40;;;4.50;99.90;;;;;;5050253;28;20216;-71
2022/01/17 06:48:18;;;;;;;5.93;4.90;;;4.50;99.90;;;;;;5049442;28;20673;-71
2022/01/17 06:50:46;;;;;;;6.97;5.33;;;4.50;99.90;;;;;;5050520;28;20210;-74
2022/01/17 06:53:13;;;;;;;8.17;5.07;;;4.50;99.90;;;;;;5052555;28;20209;-72
2022/01/17 06:55:40;;;;;;;8.23;4.97;;;4.40;99.90;;;;;;5053474;28;20781;-73
2022/01/17 06:58:07;;;;;;;9.80;5.20;;;4.50;99.90;;;;;;5052985;28;20241;-71
2022/01/17 07:00:34;;;;;;;8.17;4.83;;;4.50;99.90;;;;;;5051283;28;20215;-70
2022/01/17 07:03:01;;;;;;;6.97;4.27;;;4.50;99.90;;;;;;5041392;28;20298;-70
2022/01/17 07:05:28;;;;;;;5.13;3.70;;;4.50;99.90;;;;;;5053464;28;20714;-70
2022/01/17 07:07:56;;;;;;;5.63;4.20;;;4.50;99.90;;;;;;5052913;28;20216;-71
2022/01/17 07:10:25;;;;;;;5.00;3.83;;;4.50;99.90;;;;;;5053275;28;20229;-70
2022/01/17 07:12:52;;;;;;;5.67;3.87;;;4.50;99.90;;;;;;5053030;28;20198;-70
2022/01/17 07:15:18;;;;;;;7.87;3.90;;;4.60;99.90;;;;;;5052308;28;20571;-71
2022/01/17 07:17:45;;;;;;;7.13;4.13;;;4.50;99.90;;;;;;5053375;28;20282;-70
2022/01/17 07:20:12;;;;;;;5.07;4.10;;;4.60;99.90;;;;;;5053214;28;20205;-71
2022/01/17 07:22:39;;;;;;;6.37;3.60;;;4.60;99.90;;;;;;5052534;28;20201;-71
2022/01/17 07:25:09;;;;;;;4.13;3.27;;;4.60;99.90;;;;;;5043209;28;20701;-70
2022/01/17 07:27:36;;;;;;;5.57;3.87;;;4.60;99.90;;;;;;5052652;28;20701;-70
2022/01/17 07:30:06;;;;;;;5.43;4.03;;;4.60;99.90;;;;;;5054243;28;20256;-70
2022/01/17 07:32:33;;;;;;;4.83;3.40;;;4.60;99.90;;;;;;5052628;28;20674;-71
2022/01/17 07:35:00;;;;;;;5.70;3.23;;;4.60;99.90;;;;;;5053596;28;20213;-70
2022/01/17 07:37:27;;;;;;;4.70;2.83;;;4.60;99.90;;;;;;5055004;28;20588;-71
2022/01/17 07:39:54;;;;;;;4.13;2.60;;;4.60;99.90;;;;;;5054969;28;20248;-70
2022/01/17 07:42:22;;;;;;;5.33;2.63;;;4.50;99.90;;;;;;5054757;28;20270;-72
2022/01/17 07:44:54;;;;;;;4.10;2.63;;;4.60;99.90;;;;;;5055140;28;20214;-72
2022/01/17 07:47:27;;;;;;;2.83;2.53;;;4.60;99.90;;;;;;5054949;28;20201;-72
2022/01/17 07:49:54;;;;;;;4.73;2.50;;;4.50;99.90;;;;;;5054445;28;20236;-71
2022/01/17 07:52:21;;;;;;;3.50;2.60;;;4.60;99.90;;;;;;5054005;28;20685;-71
2022/01/17 07:54:49;;;;;;;3.73;2.50;;;4.50;99.90;;;;;;5054911;28;20933;-71
2022/01/17 07:57:16;;;;;;;3.90;2.80;;;4.50;99.90;;;;;;5053726;28;20225;-69
2022/01/17 07:59:44;;;;;;;5.37;2.90;;;4.50;99.90;;;;;;5054127;28;20305;-69
2022/01/17 08:02:11;;;;;;;6.83;2.80;;;4.50;99.90;;;;;;5053935;28;20216;-71
2022/01/17 08:04:38;;;;;;;4.67;2.63;;;4.60;99.90;;;;;;5053935;28;20224;-71
2022/01/17 08:07:07;;;;;;;6.27;3.10;;;4.60;99.90;;;;;;5051580;28;20228;-72
2022/01/17 08:09:35;;;;;;;4.33;2.70;;;4.50;99.90;;;;;;5050846;28;20252;-71
2022/01/17 08:12:05;;;;;;;5.57;2.70;;;4.50;99.90;;;;;;5051502;28;20316;-71
2022/01/17 08:14:32;;;;;;;4.53;3.10;;;4.50;99.90;;;;;;5052296;28;20220;-72
2022/01/17 08:17:00;;;;;;;9.07;2.90;;;4.60;99.90;;;;;;5052760;28;20216;-71
2022/01/17 08:19:27;;;;;;;4.33;2.60;;;4.50;99.90;;;;;;5052443;28;20201;-72
2022/01/17 08:21:53;;;;;;;7.77;3.20;;;4.50;99.90;;;;;;5045705;28;20210;-69
2022/01/17 08:24:20;;;;;;;3.53;2.27;;;4.50;99.90;;;;;;5053846;28;20213;-71
2022/01/17 08:26:50;;;;;;;4.80;2.60;;;4.50;99.90;;;;;;5053615;28;20198;-71
2022/01/17 08:29:18;;;;;;;6.07;2.70;;;4.50;99.90;;;;;;5053202;28;20225;-71
2022/01/17 08:31:47;;;;;;;6.00;2.30;;;4.50;99.90;;;;;;5052168;28;20205;-73
2022/01/17 08:34:17;;;;;;;4.60;2.40;;;4.60;99.90;;;;;;5053628;28;20213;-72
2022/01/17 08:36:44;;;;;;;2.83;2.03;;;4.50;99.90;;;;;;5054160;28;20190;-71
2022/01/17 08:39:11;;;;;;;3.63;2.30;;;4.60;99.90;;;;;;5050639;28;20206;-71
2022/01/17 08:41:42;;;;;;;9.60;2.53;;;4.60;99.90;;;;;;5047860;28;20213;-71
2022/01/17 08:44:09;;;;;;;4.33;2.23;;;4.60;99.90;;;;;;5056939;28;20216;-72
2022/01/17 08:46:36;;;;;;;4.67;2.40;;;4.60;99.90;;;;;;5052952;28;20205;-74
2022/01/17 08:49:03;;;;;;;5.27;2.00;;;4.60;99.90;;;;;;5049670;28;20217;-72
2022/01/17 08:51:31;;;;;;;6.47;1.90;;;4.60;99.90;;;;;;5052131;28;20209;-73
2022/01/17 08:53:58;;;;;;;3.53;1.90;;;4.60;99.90;;;;;;5051469;28;20516;-70
2022/01/17 08:56:27;;;;;;;8.40;2.20;;;4.60;99.90;;;;;;5051981;28;20222;-73
2022/01/17 08:58:54;;;;;;;6.73;2.77;;;4.60;99.90;;;;;;5052067;28;20703;-71
2022/01/17 09:01:23;;;;;;;3.37;1.47;;;4.60;99.90;;;;;;5052747;28;20233;-71
2022/01/17 09:03:49;;;;;;;2.80;0.63;;;4.50;99.90;;;;;;5049296;28;20213;-68
2022/01/17 09:06:17;;;;;;;0.50;0.30;;;4.20;99.90;;;;;;5050309;28;20213;-71
2022/01/17 09:08:45;;;;;;;0.53;0.43;;;3.90;99.90;;;;;;5041742;28;20210;-71
2022/01/17 09:11:12;;;;;;;0.67;0.40;;;3.60;99.90;;;;;;5049891;28;20237;-72
2022/01/17 09:13:39;;;;;;;0.40;0.40;;;3.20;99.90;;;;;;5051101;28;20227;-72
2022/01/17 09:16:08;;;;;;;0.73;0.47;;;3.00;99.90;;;;;;5051509;28;20204;-72
2022/01/17 09:18:35;;;;;;;0.60;0.20;;;2.70;99.90;;;;;;5052512;28;20241;-72
2022/01/17 09:21:02;;;;;;;1.50;0.40;;;2.50;99.90;;;;;;5052538;28;20514;-71
2022/01/17 09:23:29;;;;;;;0.47;0.43;;;2.40;99.90;;;;;;5051428;28;20671;-69
2022/01/17 09:25:57;;;;;;;1.30;0.70;;;2.20;99.90;;;;;;5051354;28;20634;-69
2022/01/17 09:28:24;;;;;;;1.10;0.50;;;2.10;99.90;;;;;;5051565;28;20754;-70
2022/01/17 09:30:51;;;;;;;0.40;0.40;;;2.20;99.90;;;;;;5049832;28;20225;-67
2022/01/17 09:33:18;;;;;;;1.27;0.50;;;2.00;99.90;;;;;;5051828;28;20659;-74
2022/01/17 09:35:45;;;;;;;0.67;0.53;;;2.00;99.90;;;;;;5053009;28;20216;-67
2022/01/17 09:38:12;;;;;;;1.93;0.60;;;2.00;99.90;;;;;;5052319;28;20278;-72
2022/01/17 09:40:39;;;;;;;0.80;0.63;;;2.00;99.90;;;;;;5052521;28;20220;-72
2022/01/17 09:43:07;;;;;;;1.57;0.60;;;2.00;99.90;;;;;;5049604;28;20639;-71
2022/01/17 09:45:34;;;;;;;1.80;0.70;;;2.00;99.90;;;;;;5051743;28;20241;-72
2022/01/17 09:48:02;;;;;;;3.40;0.50;;;2.00;99.90;;;;;;5052425;28;20210;-75
2022/01/17 09:50:45;;;;;;;1.40;0.60;;;1.90;99.90;;;;;;5050886;28;20337;-73
2022/01/17 09:53:18;;;;;;;1.10;0.63;;;2.00;99.90;;;;;;5053185;28;20240;-71
2022/01/17 09:55:45;;;;;;;0.90;0.60;;;2.00;99.90;;;;;;5039253;28;20201;-67
2022/01/17 09:58:15;;;;;;;1.80;0.90;;;2.00;99.90;;;;;;5049299;28;20448;-66
2022/01/17 10:00:44;;;;;;;0.95;0.80;;;2.00;99.90;;;;;;5049005;28;20432;-66
2022/01/17 10:03:13;;;;;;;1.73;1.00;;;2.00;99.90;;;;;;5048236;28;20933;-65
2022/01/17 10:05:40;;;;;;;1.52;1.00;;;2.00;99.90;;;;;;5048315;28;20536;-65
2022/01/17 10:08:09;;;;;;;2.90;1.00;;;2.00;99.90;;;;;;5049903;28;20206;-64
2022/01/17 10:10:38;;;;;;;1.60;0.97;;;2.00;99.90;;;;;;5048825;28;20223;-66
2022/01/17 10:13:07;;;;;;;1.67;0.97;;;2.00;99.90;;;;;;5046116;28;20205;-67
2022/01/17 10:15:45;;;;;;;1.90;1.20;;;2.00;99.90;;;;;;5049396;28;20208;-67
2022/01/17 10:18:26;;;;;;;2.33;1.00;;;2.10;99.90;;;;;;5048478;28;20209;-68
2022/01/17 10:20:57;;;;;;;1.57;0.90;;;2.10;99.90;;;;;;5047688;28;20666;-67
2022/01/17 10:23:43;;;;;;;1.20;1.10;;;2.10;99.90;;;;;;5048343;28;20209;-66
2022/01/17 10:26:19;;;;;;;2.00;1.00;;;2.00;99.90;;;;;;5048377;28;20667;-66
2022/01/17 10:29:08;;;;;;;3.00;0.80;;;2.00;99.90;;;;;;5052372;28;20229;-67
2022/01/17 10:37:08;;;;;;;4.30;1.40;;;2.00;99.90;;;;;;5050263;28;20567;-67
2022/01/17 10:39:37;;;;;;;2.20;1.03;;;2.10;99.90;;;;;;5052652;28;20220;-66
2022/01/17 10:42:23;;;;;;;0.87;0.80;;;2.20;99.90;;;;;;5053107;28;20216;-68
2022/01/17 10:44:50;;;;;;;5.03;0.90;;;2.30;99.90;;;;;;5050703;28;20202;-67
2022/01/17 10:47:24;;;;;;;1.77;0.93;;;2.30;99.90;;;;;;5052789;28;20650;-67
2022/01/17 10:49:54;;;;;;;0.93;0.77;;;2.40;99.90;;;;;;5053809;28;20219;-67
2022/01/17 10:52:32;;;;;;;0.80;0.80;;;2.50;99.90;;;;;;5053178;28;20289;-67
2022/01/17 10:55:01;;;;;;;2.47;0.90;;;2.70;99.90;;;;;;5050036;28;20406;-68
2022/01/17 10:57:34;;;;;;;1.37;0.90;;;2.90;99.90;;;;;;5040118;28;20309;-69
2022/01/17 11:00:01;;;;;;;2.53;1.20;;;3.10;99.90;;;;;;5052249;28;20567;-68
2022/01/17 11:02:30;;;;;;;2.30;1.00;;;3.20;99.90;;;;;;5051402;28;20214;-69
2022/01/17 11:04:56;;;;;;;2.07;1.10;;;3.30;99.90;;;;;;5052048;28;20576;-69
2022/01/17 11:07:23;;;;;;;1.60;0.80;;;3.40;99.90;;;;;;5052445;28;20206;-69
2022/01/17 11:09:51;;;;;;;1.93;0.73;;;3.40;99.90;;;;;;5053038;28;20256;-68
2022/01/17 11:12:19;;;;;;;1.63;0.80;;;3.40;99.90;;;;;;5052231;28;20301;-67
2022/01/17 11:14:48;;;;;;;2.93;1.33;;;3.40;99.90;;;;;;5052327;28;20206;-68
2022/01/17 11:17:25;;;;;;;2.50;1.30;;;3.50;99.90;;;;;;5052218;28;20293;-68
2022/01/17 11:20:06;;;;;;;1.90;0.90;;;4.80;99.90;;;;;;5052337;28;20260;-68
2022/01/17 11:22:35;;;;;;;3.73;1.30;;;8.30;99.90;;;;;;5059772;28;20645;-67
2022/01/17 11:25:03;;;;;;;1.50;1.00;;;12.70;99.90;;;;;;5050583;28;20206;-69
2022/01/17 11:27:30;;;;;;;2.93;1.00;;;16.20;94.20;;;;;;5049803;28;20205;-67
2022/01/17 11:29:57;;;;;;;2.30;1.17;;;19.00;72.00;;;;;;5053035;28;20593;-68
2022/01/17 11:32:24;;;;;;;3.40;1.17;;;21.20;58.90;;;;;;5052202;28;20660;-69
2022/01/17 11:34:54;;;;;;;1.77;1.20;;;23.20;52.90;;;;;;5053951;28;20213;-67
2022/01/17 11:37:22;;;;;;;2.13;1.33;;;24.80;47.40;;;;;;5053720;28;20221;-69
2022/01/17 11:39:51;;;;;;;5.18;1.88;;;26.10;43.70;;;;;;5052507;28;20350;-69
2022/01/17 11:42:32;;;;;;;3.67;1.45;;;27.30;41.10;;;;;;5052105;28;20209;-69
2022/01/17 11:44:59;;;;;;;2.63;1.45;;;28.20;38.50;;;;;;5051120;28;20205;-69
2022/01/17 11:47:49;;;;;;;2.15;1.45;;;28.50;37.50;;;;;;5047297;28;20212;-70
2022/01/17 11:50:42;;;;;;;2.65;1.50;;;28.70;35.20;;;;;;5049865;28;20280;-69
2022/01/17 11:53:43;;;;;;;5.68;1.70;;;26.50;33.00;;;;;;5047570;28;20286;-68
2022/01/17 11:56:10;;;;;;;3.53;1.70;;;23.60;35.60;;;;;;5042263;28;20226;-66
2022/01/17 11:58:44;;;;;;;3.90;2.10;;;21.00;36.90;;;;;;5051726;28;20206;-69
2022/01/17 12:01:17;;;;;;;4.00;1.80;;;18.70;39.10;;;;;;5050843;28;20198;-74
2022/01/17 12:03:46;;;;;;;3.23;1.43;;;16.50;41.00;;;;;;5051074;28;20197;-69
2022/01/17 12:06:23;;;;;;;2.67;1.57;;;14.50;43.30;;;;;;5046372;28;20217;-67
2022/01/17 12:09:11;;;;;;;5.03;1.83;;;12.90;45.80;;;;;;5051832;28;20618;-71
2022/01/17 12:11:41;;;;;;;2.77;1.57;;;11.60;47.80;;;;;;5051522;28;20248;-68
2022/01/17 12:14:22;;;;;;;3.87;1.43;;;10.40;50.10;;;;;;5052131;28;20204;-69
2022/01/17 12:16:49;;;;;;;3.80;1.33;;;9.40;53.20;;;;;;5049517;28;20229;-69
2022/01/17 12:19:16;;;;;;;2.83;1.10;;;8.70;54.90;;;;;;5052456;28;20210;-68
2022/01/17 12:21:47;;;;;;;2.43;1.33;;;8.10;56.30;;;;;;5050678;28;20216;-68
2022/01/17 12:24:37;;;;;;;3.93;1.40;;;7.60;57.60;;;;;;5051140;28;20329;-69
2022/01/17 12:27:15;;;;;;;6.57;1.43;;;6.90;59.10;;;;;;5051076;28;20555;-67
2022/01/17 12:29:46;;;;;;;3.67;1.40;;;6.50;60.30;;;;;;5051335;28;20202;-65
2022/01/17 12:32:52;;;;;;;4.53;1.63;;;6.10;61.60;;;;;;5044310;28;20276;-65
2022/01/17 12:35:29;;;;;;;4.20;1.80;;;5.80;63.70;;;;;;5036555;28;20240;-68
2022/01/17 12:38:12;;;;;;;2.63;1.30;;;5.40;64.90;;;;;;5050994;28;20194;-69
2022/01/17 12:40:41;;;;;;;4.17;1.30;;;5.30;66.20;;;;;;5043199;28;20677;-68
2022/01/17 12:43:11;;;;;;;3.73;1.33;;;5.10;67.50;;;;;;5050075;28;20202;-67
2022/01/17 12:45:40;;;;;;;2.60;1.10;;;4.80;68.30;;;;;;5050216;28;20253;-69
2022/01/17 12:48:09;;;;;;;4.47;1.50;;;4.60;69.00;;;;;;5051488;28;20213;-68
2022/01/17 12:50:38;;;;;;;3.73;1.40;;;4.50;70.30;;;;;;5044307;28;20222;-69
2022/01/17 12:53:06;;;;;;;4.40;1.70;;;4.40;71.70;;;;;;5043737;28;20310;-67
2022/01/17 12:55:37;;;;;;;5.33;1.60;;;4.30;72.80;;;;;;5049597;28;20202;-67
2022/01/17 12:58:13;;;;;;;4.17;1.50;;;4.30;74.30;;;;;;5050298;28;20228;-67
2022/01/17 13:00:45;;;;;;;3.47;1.17;;;4.30;75.30;;;;;;5050650;28;20197;-67
2022/01/17 13:03:13;;;;;;;3.00;1.30;;;4.40;76.10;;;;;;5049215;28;20583;-67
2022/01/17 13:05:40;;;;;;;2.50;1.30;;;4.40;77.00;;;;;;5047741;28;20210;-69
2022/01/17 13:08:07;;;;;;;5.73;2.03;;;4.30;77.30;;;;;;5052336;28;20212;-70
2022/01/17 13:10:34;;;;;;;2.77;1.40;;;4.30;77.90;;;;;;5050324;28;20232;-70
2022/01/17 13:13:02;;;;;;;1.80;1.20;;;4.20;78.50;;;;;;5051017;28;20671;-70
2022/01/17 13:15:31;;;;;;;2.83;1.70;;;4.20;79.40;;;;;;5050964;28;20633;-69
2022/01/17 13:17:58;;;;;;;2.63;1.00;;;4.10;80.20;;;;;;5045400;28;20218;-70